Shumway, Illinois
Current Conditions -  °F | °C
As of 8:15 AM on Wednesday 28 Jan 2015 (Local Time) from K1H2 Reporting Station
Clear Clear  
Wind Chill: 20°   Ceiling: Unl
Heat Index: 28°   Visibility: 10mi
Dew Point: 21°   Wind: 9mph
Humidity: 73%   Direction: 110°ESE
Pressure: 30.32"   Gusts: NA
Location:  39.19°N, 88.65°W
Report Text: K1H2 281415Z AUTO 11008KT 10SM CLR M02/M06 A3032 RMK AO2 T10201062
Loading
Personal Weather Stations






























Interactive Weather Map New forecast layout! Learn more

10-Day Weather Forecast

Advertisements
Track Severe Weather on mobile